sensor_id;sensor_type;location;lat;lon;timestamp;pressure;altitude;pressure_sealevel;temperature;humidity
47330;BME280;33060;50.178;7.570;2022-11-15T00:01:29;96562.72;;;9.86;100.00
47330;BME280;33060;50.178;7.570;2022-11-15T00:04:15;96556.88;;;9.94;100.00
47330;BME280;33060;50.178;7.570;2022-11-15T00:07:00;96556.16;;;9.92;100.00
47330;BME280;33060;50.178;7.570;2022-11-15T00:09:45;96558.53;;;9.84;100.00
47330;BME280;33060;50.178;7.570;2022-11-15T00:12:31;96545.94;;;9.76;100.00
47330;BME280;33060;50.178;7.570;2022-11-15T00:15:16;96553.84;;;9.76;100.00
47330;BME280;33060;50.178;7.570;2022-11-15T00:18:01;96546.88;;;9.75;100.00
47330;BME280;33060;50.178;7.570;2022-11-15T00:20:47;96547.72;;;9.76;100.00
47330;BME280;33060;50.178;7.570;2022-11-15T00:23:33;96538.41;;;9.83;100.00
47330;BME280;33060;50.178;7.570;2022-11-15T00:26:18;96542.09;;;9.80;100.00
47330;BME280;33060;50.178;7.570;2022-11-15T00:29:03;96541.13;;;9.81;100.00
47330;BME280;33060;50.178;7.570;2022-11-15T00:31:49;96541.13;;;9.81;100.00
47330;BME280;33060;50.178;7.570;2022-11-15T00:34:34;96534.47;;;9.88;100.00
47330;BME280;33060;50.178;7.570;2022-11-15T00:37:19;96533.63;;;9.88;100.00
47330;BME280;33060;50.178;7.570;2022-11-15T00:40:05;96527.75;;;9.84;100.00
47330;BME280;33060;50.178;7.570;2022-11-15T00:42:50;96538.28;;;9.84;100.00
47330;BME280;33060;50.178;7.570;2022-11-15T00:45:35;96541.13;;;9.81;100.00
47330;BME280;33060;50.178;7.570;2022-11-15T00:48:21;96543.28;;;9.76;100.00
47330;BME280;33060;50.178;7.570;2022-11-15T00:51:06;96550.94;;;9.68;100.00
47330;BME280;33060;50.178;7.570;2022-11-15T00:53:51;96548.97;;;9.59;100.00
47330;BME280;33060;50.178;7.570;2022-11-15T00:56:36;96551.84;;;9.56;100.00
47330;BME280;33060;50.178;7.570;2022-11-15T00:59:21;96548.34;;;9.55;100.00
47330;BME280;33060;50.178;7.570;2022-11-15T01:02:07;96544.78;;;9.56;100.00
47330;BME280;33060;50.178;7.570;2022-11-15T01:04:52;96552.78;;;9.55;100.00
47330;BME280;33060;50.178;7.570;2022-11-15T01:07:37;96546.59;;;9.56;100.00
47330;BME280;33060;50.178;7.570;2022-11-15T01:10:23;96558.31;;;9.63;100.00
47330;BME280;33060;50.178;7.570;2022-11-15T01:13:08;96560.38;;;9.71;100.00
47330;BME280;33060;50.178;7.570;2022-11-15T01:15:54;96547.72;;;9.76;100.00
47330;BME280;33060;50.178;7.570;2022-11-15T01:18:39;96547.16;;;9.83;100.00
47330;BME280;33060;50.178;7.570;2022-11-15T01:21:25;96551.09;;;9.89;100.00
47330;BME280;33060;50.178;7.570;2022-11-15T01:24:12;96544.53;;;9.95;100.00
47330;BME280;33060;50.178;7.570;2022-11-15T01:26:57;96545.88;;;10.00;100.00
47330;BME280;33060;50.178;7.570;2022-11-15T01:29:42;96537.75;;;10.03;100.00
47330;BME280;33060;50.178;7.570;2022-11-15T01:32:28;96534.03;;;10.06;100.00
47330;BME280;33060;50.178;7.570;2022-11-15T01:35:13;96529.25;;;10.11;100.00
47330;BME280;33060;50.178;7.570;2022-11-15T01:37:58;96530.09;;;10.11;100.00
47330;BME280;33060;50.178;7.570;2022-11-15T01:40:43;96527.44;;;10.11;100.00
47330;BME280;33060;50.178;7.570;2022-11-15T01:43:32;96524.81;;;10.11;100.00
47330;BME280;33060;50.178;7.570;2022-11-15T01:49:16;96523.41;;;10.18;100.00
47330;BME280;33060;50.178;7.570;2022-11-15T01:52:05;96514.78;;;10.16;100.00
47330;BME280;33060;50.178;7.570;2022-11-15T01:54:56;96514.88;;;10.15;100.00
47330;BME280;33060;50.178;7.570;2022-11-15T01:57:46;96506.38;;;10.11;100.00
47330;BME280;33060;50.178;7.570;2022-11-15T02:00:33;96499.44;;;10.10;100.00
47330;BME280;33060;50.178;7.570;2022-11-15T02:03:18;96497.63;;;10.11;100.00
47330;BME280;33060;50.178;7.570;2022-11-15T02:06:05;96498.22;;;10.14;100.00
47330;BME280;33060;50.178;7.570;2022-11-15T02:08:50;96495.25;;;10.19;100.00
47330;BME280;33060;50.178;7.570;2022-11-15T02:11:36;96500.72;;;10.16;100.00
47330;BME280;33060;50.178;7.570;2022-11-15T02:14:23;96499.91;;;10.15;100.00
47330;BME280;33060;50.178;7.570;2022-11-15T02:32:21;96476.56;;;10.22;100.00
47330;BME280;33060;50.178;7.570;2022-11-15T02:41:30;96471.53;;;10.08;100.00
47330;BME280;33060;50.178;7.570;2022-11-15T02:44:27;96468.66;;;10.11;100.00
47330;BME280;33060;50.178;7.570;2022-11-15T02:47:17;96461.31;;;10.14;100.00
47330;BME280;33060;50.178;7.570;2022-11-15T02:50:08;96460.03;;;10.20;100.00
47330;BME280;33060;50.178;7.570;2022-11-15T02:52:55;96454.75;;;10.20;100.00
47330;BME280;33060;50.178;7.570;2022-11-15T02:55:46;96452.84;;;10.22;100.00
47330;BME280;33060;50.178;7.570;2022-11-15T02:58:56;96452.63;;;10.25;100.00
47330;BME280;33060;50.178;7.570;2022-11-15T03:05:23;96450.72;;;10.27;100.00
47330;BME280;33060;50.178;7.570;2022-11-15T03:08:21;96457.16;;;10.23;100.00
47330;BME280;33060;50.178;7.570;2022-11-15T03:11:11;96455.03;;;10.28;100.00
47330;BME280;33060;50.178;7.570;2022-11-15T03:17:26;96455.28;;;10.25;100.00
47330;BME280;33060;50.178;7.570;2022-11-15T03:20:15;96452.72;;;10.24;100.00
47330;BME280;33060;50.178;7.570;2022-11-15T03:23:06;96449.00;;;10.15;100.00
47330;BME280;33060;50.178;7.570;2022-11-15T03:25:54;96457.47;;;10.07;100.00
47330;BME280;33060;50.178;7.570;2022-11-15T03:28:57;96453.19;;;10.06;100.00
47330;BME280;33060;50.178;7.570;2022-11-15T03:31:47;96448.03;;;10.05;100.00
47330;BME280;33060;50.178;7.570;2022-11-15T03:34:43;96446.84;;;10.09;100.00
47330;BME280;33060;50.178;7.570;2022-11-15T03:40:25;96445.28;;;10.17;100.00
47330;BME280;33060;50.178;7.570;2022-11-15T03:43:25;96446.13;;;10.18;100.00
47330;BME280;33060;50.178;7.570;2022-11-15T03:46:17;96448.53;;;10.10;100.00
47330;BME280;33060;50.178;7.570;2022-11-15T03:49:17;96451.63;;;10.04;100.00
47330;BME280;33060;50.178;7.570;2022-11-15T03:52:04;96452.34;;;9.95;100.00
47330;BME280;33060;50.178;7.570;2022-11-15T03:54:55;96451.84;;;9.89;100.00
47330;BME280;33060;50.178;7.570;2022-11-15T03:57:40;96459.16;;;9.75;100.00
47330;BME280;33060;50.178;7.570;2022-11-15T04:00:27;96462.81;;;9.61;100.00
47330;BME280;33060;50.178;7.570;2022-11-15T04:03:12;96467.66;;;9.43;100.00
47330;BME280;33060;50.178;7.570;2022-11-15T04:05:57;96457.72;;;9.35;100.00
47330;BME280;33060;50.178;7.570;2022-11-15T04:08:43;96455.66;;;9.28;100.00
47330;BME280;33060;50.178;7.570;2022-11-15T04:11:28;96457.81;;;9.23;100.00
47330;BME280;33060;50.178;7.570;2022-11-15T04:14:13;96460.59;;;9.09;100.00
47330;BME280;33060;50.178;7.570;2022-11-15T04:16:58;96462.13;;;9.00;100.00
47330;BME280;33060;50.178;7.570;2022-11-15T04:19:43;96455.84;;;8.90;100.00
47330;BME280;33060;50.178;7.570;2022-11-15T04:23:03;96452.50;;;8.88;100.00
47330;BME280;33060;50.178;7.570;2022-11-15T04:26:11;96450.72;;;8.88;100.00
47330;BME280;33060;50.178;7.570;2022-11-15T04:28:57;96447.44;;;8.85;100.00
47330;BME280;33060;50.178;7.570;2022-11-15T04:32:03;96448.19;;;8.87;100.00
47330;BME280;33060;50.178;7.570;2022-11-15T04:34:49;96450.63;;;8.77;100.00
47330;BME280;33060;50.178;7.570;2022-11-15T04:37:34;96448.94;;;8.76;100.00
47330;BME280;33060;50.178;7.570;2022-11-15T04:40:19;96446.44;;;8.74;100.00
47330;BME280;33060;50.178;7.570;2022-11-15T04:43:05;96452.25;;;8.67;100.00
47330;BME280;33060;50.178;7.570;2022-11-15T04:45:50;96443.94;;;8.73;100.00
47330;BME280;33060;50.178;7.570;2022-11-15T04:48:35;96448.34;;;8.72;100.00
47330;BME280;33060;50.178;7.570;2022-11-15T04:51:20;96448.78;;;8.66;100.00
47330;BME280;33060;50.178;7.570;2022-11-15T04:54:06;96450.81;;;8.63;100.00
47330;BME280;33060;50.178;7.570;2022-11-15T04:56:51;96454.59;;;8.59;100.00
47330;BME280;33060;50.178;7.570;2022-11-15T04:59:37;96444.91;;;8.59;100.00
47330;BME280;33060;50.178;7.570;2022-11-15T05:02:22;96443.47;;;8.55;100.00
47330;BME280;33060;50.178;7.570;2022-11-15T05:05:07;96448.19;;;8.63;100.00
47330;BME280;33060;50.178;7.570;2022-11-15T05:07:53;96448.19;;;8.63;100.00
47330;BME280;33060;50.178;7.570;2022-11-15T05:10:38;96453.84;;;8.69;100.00
47330;BME280;33060;50.178;7.570;2022-11-15T05:13:23;96462.00;;;8.77;100.00
47330;BME280;33060;50.178;7.570;2022-11-15T05:16:08;96456.28;;;8.84;100.00
47330;BME280;33060;50.178;7.570;2022-11-15T05:18:54;96456.44;;;8.93;100.00
47330;BME280;33060;50.178;7.570;2022-11-15T05:21:40;96456.00;;;8.99;100.00
47330;BME280;33060;50.178;7.570;2022-11-15T05:24:25;96446.22;;;9.01;100.00
47330;BME280;33060;50.178;7.570;2022-11-15T05:27:10;96452.53;;;8.99;100.00
47330;BME280;33060;50.178;7.570;2022-11-15T05:29:55;96445.09;;;8.93;100.00
47330;BME280;33060;50.178;7.570;2022-11-15T05:32:40;96446.28;;;8.89;100.00
47330;BME280;33060;50.178;7.570;2022-11-15T05:35:34;96446.25;;;8.77;100.00
47330;BME280;33060;50.178;7.570;2022-11-15T05:38:23;96434.69;;;8.67;100.00
47330;BME280;33060;50.178;7.570;2022-11-15T05:41:08;96446.69;;;8.59;100.00
47330;BME280;33060;50.178;7.570;2022-11-15T05:43:53;96444.91;;;8.59;100.00
47330;BME280;33060;50.178;7.570;2022-11-15T05:46:40;96445.97;;;8.57;100.00
47330;BME280;33060;50.178;7.570;2022-11-15T05:49:30;96440.72;;;8.57;100.00
47330;BME280;33060;50.178;7.570;2022-11-15T05:52:20;96440.72;;;8.57;100.00
47330;BME280;33060;50.178;7.570;2022-11-15T05:55:07;96443.47;;;8.55;100.00
47330;BME280;33060;50.178;7.570;2022-11-15T05:57:53;96447.00;;;8.67;100.00
47330;BME280;33060;50.178;7.570;2022-11-15T06:00:38;96450.75;;;8.75;100.00
47330;BME280;33060;50.178;7.570;2022-11-15T06:03:24;96451.16;;;8.82;100.00
47330;BME280;33060;50.178;7.570;2022-11-15T06:06:09;96453.22;;;8.90;100.00
47330;BME280;33060;50.178;7.570;2022-11-15T06:09:00;96456.00;;;8.99;100.00
47330;BME280;33060;50.178;7.570;2022-11-15T06:11:45;96453.78;;;9.06;100.00
47330;BME280;33060;50.178;7.570;2022-11-15T06:14:31;96449.00;;;9.11;100.00
47330;BME280;33060;50.178;7.570;2022-11-15T06:17:16;96451.63;;;9.11;100.00
47330;BME280;33060;50.178;7.570;2022-11-15T06:20:01;96457.53;;;9.15;100.00
47330;BME280;33060;50.178;7.570;2022-11-15T06:22:46;96459.91;;;9.18;100.00
47330;BME280;33060;50.178;7.570;2022-11-15T06:25:31;96456.81;;;9.13;100.00
47330;BME280;33060;50.178;7.570;2022-11-15T06:28:16;96457.25;;;9.06;100.00
47330;BME280;33060;50.178;7.570;2022-11-15T06:31:06;96450.53;;;9.02;100.00
47330;BME280;33060;50.178;7.570;2022-11-15T06:33:51;96451.84;;;8.97;100.00
47330;BME280;33060;50.178;7.570;2022-11-15T06:36:37;96455.19;;;8.99;100.00
47330;BME280;33060;50.178;7.570;2022-11-15T06:39:22;96458.41;;;9.02;100.00
47330;BME280;33060;50.178;7.570;2022-11-15T06:42:08;96463.47;;;9.05;100.00
47330;BME280;33060;50.178;7.570;2022-11-15T06:44:53;96461.78;;;9.04;100.00
47330;BME280;33060;50.178;7.570;2022-11-15T06:47:45;96462.22;;;8.98;100.00
47330;BME280;33060;50.178;7.570;2022-11-15T06:50:31;96460.19;;;9.02;100.00
47330;BME280;33060;50.178;7.570;2022-11-15T06:53:17;96464.75;;;9.00;100.00
47330;BME280;33060;50.178;7.570;2022-11-15T06:56:04;96471.97;;;9.09;100.00
47330;BME280;33060;50.178;7.570;2022-11-15T06:58:50;96466.84;;;9.19;100.00
47330;BME280;33060;50.178;7.570;2022-11-15T07:01:35;96462.59;;;9.29;100.00
47330;BME280;33060;50.178;7.570;2022-11-15T07:04:20;96467.28;;;9.37;100.00
47330;BME280;33060;50.178;7.570;2022-11-15T07:07:06;96468.97;;;9.38;100.00
47330;BME280;33060;50.178;7.570;2022-11-15T07:09:51;96472.22;;;9.41;100.00
47330;BME280;33060;50.178;7.570;2022-11-15T07:12:36;96471.97;;;9.44;100.00
47330;BME280;33060;50.178;7.570;2022-11-15T07:15:25;96468.25;;;9.47;100.00
47330;BME280;33060;50.178;7.570;2022-11-15T07:18:11;96474.03;;;9.52;100.00
47330;BME280;33060;50.178;7.570;2022-11-15T07:21:00;96468.53;;;9.55;100.00
47330;BME280;33060;50.178;7.570;2022-11-15T07:23:46;96472.88;;;9.56;100.00
47330;BME280;33060;50.178;7.570;2022-11-15T07:26:32;96472.38;;;9.62;100.00
47330;BME280;33060;50.178;7.570;2022-11-15T07:29:17;96475.72;;;9.64;100.00
47330;BME280;33060;50.178;7.570;2022-11-15T07:32:02;96472.88;;;9.67;100.00
47330;BME280;33060;50.178;7.570;2022-11-15T07:34:47;96479.84;;;9.68;100.00
47330;BME280;33060;50.178;7.570;2022-11-15T07:37:33;96476.94;;;9.71;100.00
47330;BME280;33060;50.178;7.570;2022-11-15T07:40:18;96476.63;;;9.76;100.00
47330;BME280;33060;50.178;7.570;2022-11-15T07:43:05;96469.94;;;9.83;100.00
47330;BME280;33060;50.178;7.570;2022-11-15T07:45:50;96466.94;;;9.87;100.00
47330;BME280;33060;50.178;7.570;2022-11-15T07:48:43;96467.44;;;9.93;100.00
47330;BME280;33060;50.178;7.570;2022-11-15T07:51:29;96461.44;;;10.13;99.60
47330;BME280;33060;50.178;7.570;2022-11-15T07:54:15;96462.31;;;10.25;98.44
47330;BME280;33060;50.178;7.570;2022-11-15T07:57:00;96461.84;;;10.31;97.44
47330;BME280;33060;50.178;7.570;2022-11-15T07:59:51;96469.53;;;10.34;97.77
47330;BME280;33060;50.178;7.570;2022-11-15T08:02:37;96465.19;;;10.33;97.70
47330;BME280;33060;50.178;7.570;2022-11-15T08:05:22;96465.09;;;10.34;96.67
47330;BME280;33060;50.178;7.570;2022-11-15T08:08:09;96464.13;;;10.35;96.77
47330;BME280;33060;50.178;7.570;2022-11-15T08:10:57;96467.84;;;10.44;96.05
47330;BME280;33060;50.178;7.570;2022-11-15T08:13:42;96467.22;;;10.40;95.56
47330;BME280;33060;50.178;7.570;2022-11-15T08:16:28;96467.72;;;10.45;95.28
47330;BME280;33060;50.178;7.570;2022-11-15T08:19:13;96464.00;;;10.48;94.92
47330;BME280;33060;50.178;7.570;2022-11-15T08:21:58;96459.31;;;10.52;93.96
47330;BME280;33060;50.178;7.570;2022-11-15T08:24:44;96471.53;;;10.53;94.43
47330;BME280;33060;50.178;7.570;2022-11-15T08:27:29;96465.75;;;10.59;93.79
47330;BME280;33060;50.178;7.570;2022-11-15T08:30:14;96466.50;;;10.61;92.27
47330;BME280;33060;50.178;7.570;2022-11-15T08:33:01;96472.25;;;10.66;91.77
47330;BME280;33060;50.178;7.570;2022-11-15T08:35:46;96471.63;;;10.73;90.63
47330;BME280;33060;50.178;7.570;2022-11-15T08:38:31;96461.47;;;10.69;90.90
47330;BME280;33060;50.178;7.570;2022-11-15T08:41:35;96461.06;;;10.73;89.48
47330;BME280;33060;50.178;7.570;2022-11-15T08:44:22;96462.41;;;10.79;89.79
47330;BME280;33060;50.178;7.570;2022-11-15T08:47:07;96453.16;;;10.73;88.73
47330;BME280;33060;50.178;7.570;2022-11-15T08:49:55;96459.06;;;10.66;89.12
47330;BME280;33060;50.178;7.570;2022-11-15T08:52:40;96451.97;;;10.66;89.80
47330;BME280;33060;50.178;7.570;2022-11-15T08:55:25;96452.22;;;10.63;88.57
47330;BME280;33060;50.178;7.570;2022-11-15T08:58:11;96447.75;;;10.75;87.75
47330;BME280;33060;50.178;7.570;2022-11-15T09:00:56;96437.44;;;10.83;87.26
47330;BME280;33060;50.178;7.570;2022-11-15T09:03:41;96437.56;;;10.82;87.04
47330;BME280;33060;50.178;7.570;2022-11-15T09:06:27;96439.09;;;10.84;86.42
47330;BME280;33060;50.178;7.570;2022-11-15T09:09:12;96436.31;;;10.97;85.84
47330;BME280;33060;50.178;7.570;2022-11-15T09:11:57;96428.28;;;10.98;84.39
47330;BME280;33060;50.178;7.570;2022-11-15T09:14:46;96436.44;;;10.95;86.06
47330;BME280;33060;50.178;7.570;2022-11-15T09:17:31;96430.78;;;11.00;86.67
47330;BME280;33060;50.178;7.570;2022-11-15T09:20:16;96429.69;;;11.02;86.16
47330;BME280;33060;50.178;7.570;2022-11-15T09:23:03;96428.00;;;11.01;85.22
47330;BME280;33060;50.178;7.570;2022-11-15T09:25:49;96436.84;;;11.12;83.96
47330;BME280;33060;50.178;7.570;2022-11-15T09:28:34;96438.50;;;11.24;84.50
47330;BME280;33060;50.178;7.570;2022-11-15T09:31:21;96437.88;;;11.31;84.20
47330;BME280;33060;50.178;7.570;2022-11-15T09:34:06;96435.63;;;11.48;83.79
47330;BME280;33060;50.178;7.570;2022-11-15T09:36:51;96429.69;;;11.35;84.40
47330;BME280;33060;50.178;7.570;2022-11-15T09:39:36;96430.91;;;11.30;84.07
47330;BME280;33060;50.178;7.570;2022-11-15T09:45:40;96433.84;;;11.16;84.16
47330;BME280;33060;50.178;7.570;2022-11-15T09:49:00;96428.75;;;11.03;84.26
47330;BME280;33060;50.178;7.570;2022-11-15T09:51:52;96425.06;;;10.84;84.21
47330;BME280;33060;50.178;7.570;2022-11-15T09:54:29;96423.28;;;10.84;84.58
47330;BME280;33060;50.178;7.570;2022-11-15T09:57:21;96427.78;;;10.93;83.66
47330;BME280;33060;50.178;7.570;2022-11-15T10:05:38;96407.13;;;11.10;83.46
47330;BME280;33060;50.178;7.570;2022-11-15T10:11:07;96385.00;;;11.22;83.76
47330;BME280;33060;50.178;7.570;2022-11-15T10:14:01;96395.56;;;11.22;83.22
47330;BME280;33060;50.178;7.570;2022-11-15T10:17:01;96375.41;;;11.21;83.18
47330;BME280;33060;50.178;7.570;2022-11-15T10:20:02;96369.47;;;11.28;81.46
47330;BME280;33060;50.178;7.570;2022-11-15T10:22:44;96356.91;;;11.42;81.54
47330;BME280;33060;50.178;7.570;2022-11-15T10:27:47;96357.03;;;11.82;80.37
47330;BME280;33060;50.178;7.570;2022-11-15T10:30:18;96347.59;;;11.89;79.54
47330;BME280;33060;50.178;7.570;2022-11-15T10:32:46;96347.13;;;12.14;79.86
47330;BME280;33060;50.178;7.570;2022-11-15T10:35:31;96348.06;;;12.44;77.30
47330;BME280;33060;50.178;7.570;2022-11-15T10:38:09;96342.63;;;12.55;76.23
47330;BME280;33060;50.178;7.570;2022-11-15T10:40:38;96330.53;;;12.82;75.38
47330;BME280;33060;50.178;7.570;2022-11-15T10:43:12;96324.53;;;13.09;74.99
47330;BME280;33060;50.178;7.570;2022-11-15T10:45:40;96322.59;;;13.20;73.74
47330;BME280;33060;50.178;7.570;2022-11-15T10:48:27;96320.63;;;13.42;72.43
47330;BME280;33060;50.178;7.570;2022-11-15T10:50:55;96300.59;;;13.67;72.17
47330;BME280;33060;50.178;7.570;2022-11-15T10:53:31;96311.38;;;13.55;70.72
47330;BME280;33060;50.178;7.570;2022-11-15T10:56:05;96307.59;;;13.58;71.59
47330;BME280;33060;50.178;7.570;2022-11-15T10:58:34;96298.13;;;13.55;71.04
47330;BME280;33060;50.178;7.570;2022-11-15T11:03:44;96289.41;;;13.16;70.17
47330;BME280;33060;50.178;7.570;2022-11-15T11:06:14;96285.31;;;13.51;71.46
47330;BME280;33060;50.178;7.570;2022-11-15T11:09:02;96286.31;;;13.40;70.07
47330;BME280;33060;50.178;7.570;2022-11-15T11:11:47;96274.72;;;13.51;70.45
47330;BME280;33060;50.178;7.570;2022-11-15T11:14:25;96270.25;;;13.51;69.15
47330;BME280;33060;50.178;7.570;2022-11-15T11:17:05;96274.19;;;13.47;69.51
47330;BME280;33060;50.178;7.570;2022-11-15T11:26:31;96257.38;;;13.66;67.39
47330;BME280;33060;50.178;7.570;2022-11-15T11:29:02;96266.03;;;13.21;67.48
47330;BME280;33060;50.178;7.570;2022-11-15T11:31:40;96256.25;;;13.02;69.76
47330;BME280;33060;50.178;7.570;2022-11-15T11:34:50;96250.28;;;12.91;69.10
47330;BME280;33060;50.178;7.570;2022-11-15T11:48:48;96252.78;;;12.25;72.49
47330;BME280;33060;50.178;7.570;2022-11-15T11:51:28;96254.50;;;12.35;72.17
47330;BME280;33060;50.178;7.570;2022-11-15T11:54:22;96243.50;;;12.50;73.04
47330;BME280;33060;50.178;7.570;2022-11-15T11:56:52;96244.22;;;12.52;72.80
47330;BME280;33060;50.178;7.570;2022-11-15T11:59:31;96235.28;;;12.62;73.09
47330;BME280;33060;50.178;7.570;2022-11-15T12:04:53;96227.88;;;12.66;73.24
47330;BME280;33060;50.178;7.570;2022-11-15T12:07:25;96224.72;;;12.62;73.88
47330;BME280;33060;50.178;7.570;2022-11-15T12:10:18;96220.09;;;12.64;73.92
47330;BME280;33060;50.178;7.570;2022-11-15T12:15:26;96224.28;;;12.57;73.07
47330;BME280;33060;50.178;7.570;2022-11-15T12:17:55;96224.13;;;12.49;74.05
47330;BME280;33060;50.178;7.570;2022-11-15T12:20:25;96220.66;;;12.49;73.33
47330;BME280;33060;50.178;7.570;2022-11-15T12:22:57;96214.41;;;12.40;73.58
47330;BME280;33060;50.178;7.570;2022-11-15T12:25:35;96207.28;;;12.40;73.80
47330;BME280;33060;50.178;7.570;2022-11-15T12:30:44;96207.88;;;12.54;73.72
47330;BME280;33060;50.178;7.570;2022-11-15T12:33:49;96208.25;;;12.59;74.81
47330;BME280;33060;50.178;7.570;2022-11-15T12:41:18;96189.03;;;12.76;73.64
47330;BME280;33060;50.178;7.570;2022-11-15T12:43:47;96189.03;;;12.86;74.52
47330;BME280;33060;50.178;7.570;2022-11-15T13:04:49;96151.00;;;12.87;71.91
47330;BME280;33060;50.178;7.570;2022-11-15T13:13:04;96139.16;;;12.81;71.70
47330;BME280;33060;50.178;7.570;2022-11-15T13:20:50;96122.94;;;12.94;71.66
47330;BME280;33060;50.178;7.570;2022-11-15T13:23:16;96124.00;;;12.73;71.55
47330;BME280;33060;50.178;7.570;2022-11-15T13:26:08;96118.19;;;12.60;72.34
47330;BME280;33060;50.178;7.570;2022-11-15T13:28:44;96123.91;;;12.56;73.04
47330;BME280;33060;50.178;7.570;2022-11-15T13:33:53;96111.47;;;12.66;71.98
47330;BME280;33060;50.178;7.570;2022-11-15T13:36:31;96105.66;;;12.62;71.35
47330;BME280;33060;50.178;7.570;2022-11-15T13:39:26;96100.38;;;12.62;72.00
47330;BME280;33060;50.178;7.570;2022-11-15T13:41:52;96100.94;;;12.56;73.52
47330;BME280;33060;50.178;7.570;2022-11-15T13:44:21;96098.84;;;12.50;72.86
47330;BME280;33060;50.178;7.570;2022-11-15T13:47:00;96094.66;;;12.57;74.13
47330;BME280;33060;50.178;7.570;2022-11-15T13:49:32;96087.31;;;12.51;74.33
47330;BME280;33060;50.178;7.570;2022-11-15T13:52:02;96080.47;;;12.49;73.83
47330;BME280;33060;50.178;7.570;2022-11-15T13:54:42;96076.28;;;12.56;74.95
47330;BME280;33060;50.178;7.570;2022-11-15T13:57:18;96073.22;;;12.51;75.06
47330;BME280;33060;50.178;7.570;2022-11-15T13:59:50;96072.50;;;12.58;74.98
47330;BME280;33060;50.178;7.570;2022-11-15T14:02:26;96062.78;;;12.49;75.90
47330;BME280;33060;50.178;7.570;2022-11-15T14:05:18;96050.84;;;12.45;76.28
47330;BME280;33060;50.178;7.570;2022-11-15T14:08:20;96049.47;;;12.41;76.58
47330;BME280;33060;50.178;7.570;2022-11-15T14:10:48;96046.97;;;12.30;77.14
47330;BME280;33060;50.178;7.570;2022-11-15T14:13:29;96051.84;;;12.25;78.03
47330;BME280;33060;50.178;7.570;2022-11-15T14:16:17;96045.75;;;12.14;78.24
47330;BME280;33060;50.178;7.570;2022-11-15T14:21:11;96033.38;;;12.05;78.62
47330;BME280;33060;50.178;7.570;2022-11-15T14:23:38;96030.34;;;12.00;79.01
47330;BME280;33060;50.178;7.570;2022-11-15T14:26:05;96026.75;;;11.92;79.31
47330;BME280;33060;50.178;7.570;2022-11-15T14:28:37;96018.50;;;12.04;79.83
47330;BME280;33060;50.178;7.570;2022-11-15T14:31:11;96019.19;;;12.16;78.63
47330;BME280;33060;50.178;7.570;2022-11-15T14:33:39;96012.31;;;12.33;78.33
47330;BME280;33060;50.178;7.570;2022-11-15T14:36:19;96003.66;;;12.40;77.67
47330;BME280;33060;50.178;7.570;2022-11-15T14:38:47;96001.72;;;12.42;76.76
47330;BME280;33060;50.178;7.570;2022-11-15T14:41:24;96002.03;;;12.30;77.02
47330;BME280;33060;50.178;7.570;2022-11-15T14:43:53;95993.13;;;12.31;77.45
47330;BME280;33060;50.178;7.570;2022-11-15T14:46:19;95998.84;;;12.26;77.67
47330;BME280;33060;50.178;7.570;2022-11-15T14:48:46;95998.19;;;12.14;79.09
47330;BME280;33060;50.178;7.570;2022-11-15T14:51:16;95999.34;;;11.93;81.27
47330;BME280;33060;50.178;7.570;2022-11-15T14:53:44;95997.81;;;11.80;82.53
47330;BME280;33060;50.178;7.570;2022-11-15T14:56:11;95993.63;;;11.68;83.64
47330;BME280;33060;50.178;7.570;2022-11-15T14:58:38;95994.03;;;11.64;84.29
47330;BME280;33060;50.178;7.570;2022-11-15T15:01:19;95987.78;;;11.55;86.18
47330;BME280;33060;50.178;7.570;2022-11-15T15:03:46;95985.44;;;11.42;87.42
47330;BME280;33060;50.178;7.570;2022-11-15T15:06:13;95992.69;;;11.30;89.36
47330;BME280;33060;50.178;7.570;2022-11-15T15:08:44;95991.25;;;11.17;90.65
47330;BME280;33060;50.178;7.570;2022-11-15T15:11:22;95994.44;;;11.11;91.94
47330;BME280;33060;50.178;7.570;2022-11-15T15:13:50;95993.34;;;11.03;92.17
47330;BME280;33060;50.178;7.570;2022-11-15T15:16:17;95989.44;;;10.98;92.50
47330;BME280;33060;50.178;7.570;2022-11-15T15:18:44;95992.06;;;10.88;94.24
47330;BME280;33060;50.178;7.570;2022-11-15T15:21:25;95985.66;;;10.81;95.55
47330;BME280;33060;50.178;7.570;2022-11-15T15:24:00;95990.06;;;10.71;96.83
47330;BME280;33060;50.178;7.570;2022-11-15T15:26:28;95986.75;;;10.69;96.93
47330;BME280;33060;50.178;7.570;2022-11-15T15:28:54;95993.09;;;10.66;97.09
47330;BME280;33060;50.178;7.570;2022-11-15T15:31:21;95986.00;;;10.67;96.67
47330;BME280;33060;50.178;7.570;2022-11-15T15:33:48;95984.50;;;10.64;97.14
47330;BME280;33060;50.178;7.570;2022-11-15T15:36:17;95988.09;;;10.63;97.74
47330;BME280;33060;50.178;7.570;2022-11-15T15:38:45;95982.38;;;10.58;97.72
47330;BME280;33060;50.178;7.570;2022-11-15T15:41:16;95977.25;;;10.57;98.13
47330;BME280;33060;50.178;7.570;2022-11-15T15:43:43;95977.75;;;10.51;98.90
47330;BME280;33060;50.178;7.570;2022-11-15T15:46:15;95974.19;;;10.52;98.85
47330;BME280;33060;50.178;7.570;2022-11-15T15:48:42;95974.44;;;10.48;99.64
47330;BME280;33060;50.178;7.570;2022-11-15T15:51:09;95967.34;;;10.49;99.78
47330;BME280;33060;50.178;7.570;2022-11-15T15:53:45;95969.16;;;10.48;99.19
47330;BME280;33060;50.178;7.570;2022-11-15T15:56:12;95965.00;;;10.46;99.47
47330;BME280;33060;50.178;7.570;2022-11-15T15:58:38;95957.47;;;10.41;100.00
47330;BME280;33060;50.178;7.570;2022-11-15T16:01:05;95952.22;;;10.41;100.00
47330;BME280;33060;50.178;7.570;2022-11-15T16:03:32;95946.25;;;10.39;100.00
47330;BME280;33060;50.178;7.570;2022-11-15T16:05:59;95948.88;;;10.39;100.00
47330;BME280;33060;50.178;7.570;2022-11-15T16:08:25;95941.94;;;10.38;100.00
47330;BME280;33060;50.178;7.570;2022-11-15T16:11:16;95940.13;;;10.39;100.00
47330;BME280;33060;50.178;7.570;2022-11-15T16:13:42;95931.13;;;10.41;99.16
47330;BME280;33060;50.178;7.570;2022-11-15T16:16:12;95925.00;;;10.41;99.30